Time;durP1;ratioP1;P1;durP2;ratioP2;P2;SDS_P1;SDS_P2;PMS_P1;PMS_P2;Temp;Humidity;BMP_temperature;BMP_pressure;BME280_temperature;BME280_humidity;BME280_pressure;Samples;Min_cycle;Max_cycle;Signal;HPM_P1;HPM_P2
2023/06/01 00:01:36;;;;;;;4.82;1.30;;;;;;;;;;4926602;29;20495;-79
2023/06/01 00:04:02;;;;;;;3.00;1.30;;;;;;;;;;4940690;29;20126;-79
2023/06/01 00:06:31;;;;;;;2.72;1.27;;;;;;;;;;4940258;29;20330;-79
2023/06/01 00:08:57;;;;;;;3.42;1.20;;;;;;;;;;4926963;29;20065;-80
2023/06/01 00:11:23;;;;;;;5.60;1.48;;;;;;;;;;4911181;29;20043;-79
2023/06/01 00:13:49;;;;;;;4.03;1.48;;;;;;;;;;4942113;28;20043;-79
2023/06/01 00:16:16;;;;;;;5.30;1.30;;;;;;;;;;4926587;29;20046;-79
2023/06/01 00:18:41;;;;;;;3.72;1.40;;;;;;;;;;4942065;29;20078;-79
2023/06/01 00:21:07;;;;;;;2.92;1.10;;;;;;;;;;4938248;29;20040;-79
2023/06/01 00:23:33;;;;;;;3.20;1.15;;;;;;;;;;4940232;29;20526;-79
2023/06/01 00:25:59;;;;;;;3.85;1.20;;;;;;;;;;4926670;29;20038;-79
2023/06/01 00:28:25;;;;;;;4.07;1.20;;;;;;;;;;4967495;28;20403;-80
2023/06/01 00:30:51;;;;;;;4.10;1.40;;;;;;;;;;5041323;28;20032;-79
2023/06/01 00:33:16;;;;;;;4.18;1.25;;;;;;;;;;5025557;28;20036;-79
2023/06/01 00:35:42;;;;;;;3.78;1.30;;;;;;;;;;5024366;28;20568;-79
2023/06/01 00:38:07;;;;;;;3.13;1.30;;;;;;;;;;5022088;28;20033;-79
2023/06/01 00:40:33;;;;;;;2.80;1.17;;;;;;;;;;5019437;28;20161;-79
2023/06/01 00:42:59;;;;;;;3.08;1.30;;;;;;;;;;5022599;28;20388;-79
2023/06/01 00:45:25;;;;;;;3.35;1.40;;;;;;;;;;5018525;28;20033;-79
2023/06/01 00:47:50;;;;;;;5.05;1.65;;;;;;;;;;5010848;28;20037;-79
2023/06/01 00:50:16;;;;;;;4.05;1.60;;;;;;;;;;5027800;28;20120;-79
2023/06/01 00:52:42;;;;;;;4.15;1.35;;;;;;;;;;5017365;28;20068;-79
2023/06/01 00:55:09;;;;;;;3.60;1.35;;;;;;;;;;5043070;28;20037;-79
2023/06/01 00:57:34;;;;;;;3.45;1.10;;;;;;;;;;5044152;28;20892;-79
2023/06/01 01:00:08;;;;;;;4.03;1.30;;;;;;;;;;5010345;28;20051;-79
2023/06/01 01:02:37;;;;;;;6.07;1.38;;;;;;;;;;5026285;28;20034;-79
2023/06/01 01:05:03;;;;;;;3.95;1.48;;;;;;;;;;5028155;28;20040;-79
2023/06/01 01:07:32;;;;;;;6.57;1.58;;;;;;;;;;5044537;28;20589;-79
2023/06/01 01:10:04;;;;;;;4.28;1.40;;;;;;;;;;5027620;28;20039;-80
2023/06/01 01:12:37;;;;;;;3.38;1.50;;;;;;;;;;5043339;28;20404;-80
2023/06/01 01:15:21;;;;;;;3.58;1.40;;;;;;;;;;5001834;28;20482;-80
2023/06/01 01:17:54;;;;;;;5.72;1.70;;;;;;;;;;5018674;28;20120;-79
2023/06/01 01:20:24;;;;;;;4.22;1.50;;;;;;;;;;5025729;28;20044;-79
2023/06/01 01:23:18;;;;;;;3.00;1.40;;;;;;;;;;5002445;28;20037;-79
2023/06/01 01:25:50;;;;;;;5.25;1.60;;;;;;;;;;5016178;28;20041;-79
2023/06/01 01:28:46;;;;;;;4.88;1.52;;;;;;;;;;5042438;28;20395;-79
2023/06/01 01:31:13;;;;;;;4.57;1.80;;;;;;;;;;5023004;28;20025;-79
2023/06/01 01:33:40;;;;;;;3.92;1.42;;;;;;;;;;5026617;28;20041;-79
2023/06/01 01:36:06;;;;;;;3.90;1.65;;;;;;;;;;5010542;28;20029;-79
2023/06/01 01:38:36;;;;;;;4.07;1.50;;;;;;;;;;5011939;28;20041;-79
2023/06/01 01:41:02;;;;;;;2.90;1.30;;;;;;;;;;5027744;28;20490;-79
2023/06/01 01:43:27;;;;;;;4.40;1.52;;;;;;;;;;5044149;28;20037;-79
2023/06/01 01:46:17;;;;;;;3.63;1.50;;;;;;;;;;5019406;28;20064;-79
2023/06/01 01:48:52;;;;;;;4.53;1.52;;;;;;;;;;5029885;28;20044;-79
2023/06/01 01:51:28;;;;;;;5.13;1.50;;;;;;;;;;5042086;28;20044;-79
2023/06/01 01:53:54;;;;;;;3.38;1.33;;;;;;;;;;5024904;28;20041;-79
2023/06/01 01:56:21;;;;;;;2.97;1.65;;;;;;;;;;5008092;28;20029;-79
2023/06/01 01:58:47;;;;;;;4.00;1.63;;;;;;;;;;5010044;28;20048;-79
2023/06/01 02:01:13;;;;;;;4.47;1.58;;;;;;;;;;5026497;28;20025;-79
2023/06/01 02:03:38;;;;;;;5.55;1.70;;;;;;;;;;5043610;28;20052;-79
2023/06/01 02:06:04;;;;;;;4.15;1.70;;;;;;;;;;5025225;28;20040;-79
2023/06/01 02:08:29;;;;;;;4.72;1.50;;;;;;;;;;5025096;28;20045;-79
2023/06/01 02:10:55;;;;;;;4.72;1.48;;;;;;;;;;5043447;28;20025;-79
2023/06/01 02:13:20;;;;;;;4.93;1.77;;;;;;;;;;5043004;28;20417;-79
2023/06/01 02:15:46;;;;;;;8.40;1.90;;;;;;;;;;5042751;28;20404;-79
2023/06/01 02:18:11;;;;;;;4.43;2.00;;;;;;;;;;5009294;28;20033;-79
2023/06/01 02:20:36;;;;;;;4.97;2.10;;;;;;;;;;5041851;28;20049;-79
2023/06/01 02:23:02;;;;;;;4.95;2.00;;;;;;;;;;5007821;28;20048;-79
2023/06/01 02:25:27;;;;;;;4.88;1.90;;;;;;;;;;5024550;28;20544;-80
2023/06/01 02:27:52;;;;;;;6.22;2.33;;;;;;;;;;5043679;28;20053;-80
2023/06/01 02:30:18;;;;;;;7.10;2.10;;;;;;;;;;5026885;28;20045;-80
2023/06/01 02:32:48;;;;;;;6.18;2.20;;;;;;;;;;5023343;28;20458;-79
2023/06/01 02:35:14;;;;;;;9.00;2.10;;;;;;;;;;5026021;28;20043;-80
2023/06/01 02:37:39;;;;;;;5.88;2.13;;;;;;;;;;5044314;28;20082;-79
2023/06/01 02:40:06;;;;;;;6.72;2.40;;;;;;;;;;5008196;28;20029;-79
2023/06/01 02:42:32;;;;;;;5.53;2.23;;;;;;;;;;5039509;28;20043;-79
2023/06/01 02:44:57;;;;;;;5.95;2.28;;;;;;;;;;5042004;28;20389;-79
2023/06/01 02:47:23;;;;;;;5.63;2.53;;;;;;;;;;5026742;28;20040;-79
2023/06/01 02:49:48;;;;;;;5.05;2.50;;;;;;;;;;5015183;28;20447;-79
2023/06/01 02:52:13;;;;;;;5.22;2.55;;;;;;;;;;5025128;28;20165;-79
2023/06/01 02:54:39;;;;;;;6.72;2.88;;;;;;;;;;5040707;28;20103;-79
2023/06/01 02:57:05;;;;;;;7.10;2.70;;;;;;;;;;5022915;28;20036;-79
2023/06/01 02:59:31;;;;;;;5.93;2.28;;;;;;;;;;5025482;28;20536;-79
2023/06/01 03:01:56;;;;;;;8.05;2.65;;;;;;;;;;5024955;28;20036;-79
2023/06/01 03:04:22;;;;;;;7.32;2.60;;;;;;;;;;5010683;28;20323;-79
2023/06/01 03:06:49;;;;;;;7.57;2.88;;;;;;;;;;5023340;28;20037;-78
2023/06/01 03:09:15;;;;;;;7.30;2.50;;;;;;;;;;5041911;28;20553;-79
2023/06/01 03:11:41;;;;;;;6.55;2.78;;;;;;;;;;5040557;28;20272;-79
2023/06/01 03:14:07;;;;;;;7.53;2.63;;;;;;;;;;5022208;28;20440;-80
2023/06/01 03:16:32;;;;;;;7.15;3.28;;;;;;;;;;5025622;28;20037;-79
2023/06/01 03:18:58;;;;;;;6.43;3.22;;;;;;;;;;5022613;28;20025;-79
2023/06/01 03:21:24;;;;;;;6.35;2.63;;;;;;;;;;5024454;28;20045;-79
2023/06/01 03:23:50;;;;;;;5.80;2.90;;;;;;;;;;5042548;28;20041;-79
2023/06/01 03:26:18;;;;;;;6.47;2.88;;;;;;;;;;5043408;28;20443;-79
2023/06/01 03:28:44;;;;;;;8.55;3.15;;;;;;;;;;5025874;28;20484;-79
2023/06/01 03:31:11;;;;;;;8.38;3.22;;;;;;;;;;5024143;28;20037;-80
2023/06/01 03:33:37;;;;;;;8.83;3.40;;;;;;;;;;5024885;28;20045;-79
2023/06/01 03:36:03;;;;;;;6.55;2.95;;;;;;;;;;5041929;28;20082;-79
2023/06/01 03:38:28;;;;;;;11.07;3.45;;;;;;;;;;5024260;28;20033;-79
2023/06/01 03:40:54;;;;;;;7.75;3.47;;;;;;;;;;5041256;28;20361;-78
2023/06/01 03:43:20;;;;;;;7.60;3.35;;;;;;;;;;5042674;28;20064;-78
2023/06/01 03:45:45;;;;;;;9.48;3.08;;;;;;;;;;5040301;28;20361;-78
2023/06/01 03:48:11;;;;;;;8.70;3.67;;;;;;;;;;5039893;28;20042;-78
2023/06/01 03:50:36;;;;;;;9.45;3.88;;;;;;;;;;5020951;28;20762;-78
2023/06/01 03:53:02;;;;;;;7.60;3.85;;;;;;;;;;5022584;28;20635;-78
2023/06/01 03:55:29;;;;;;;8.95;4.35;;;;;;;;;;5025405;28;20393;-79
2023/06/01 03:57:54;;;;;;;7.07;3.78;;;;;;;;;;5042228;28;20548;-78
2023/06/01 04:00:20;;;;;;;11.05;4.28;;;;;;;;;;5008555;28;20043;-79
2023/06/01 04:02:48;;;;;;;7.35;3.78;;;;;;;;;;5040993;28;20060;-78
2023/06/01 04:05:16;;;;;;;8.15;3.55;;;;;;;;;;5021475;28;20041;-77
2023/06/01 04:07:42;;;;;;;8.45;3.70;;;;;;;;;;5022209;28;20045;-77
2023/06/01 04:10:07;;;;;;;10.63;4.00;;;;;;;;;;5041051;28;20029;-77
2023/06/01 04:12:33;;;;;;;12.10;4.47;;;;;;;;;;5023068;28;20124;-77
2023/06/01 04:14:58;;;;;;;12.57;4.53;;;;;;;;;;5009086;28;20029;-77
2023/06/01 04:17:23;;;;;;;7.72;4.45;;;;;;;;;;5041119;28;20381;-77
2023/06/01 04:19:49;;;;;;;12.68;5.47;;;;;;;;;;5045055;28;20063;-78
2023/06/01 04:22:15;;;;;;;12.18;4.38;;;;;;;;;;5046254;28;20484;-74
2023/06/01 04:24:40;;;;;;;11.63;5.50;;;;;;;;;;5044193;28;20037;-74
2023/06/01 04:27:07;;;;;;;12.50;5.65;;;;;;;;;;5044729;28;20044;-74
2023/06/01 04:29:33;;;;;;;12.30;5.68;;;;;;;;;;5044287;28;20041;-74
2023/06/01 04:31:59;;;;;;;14.93;6.40;;;;;;;;;;5023933;28;20044;-74
2023/06/01 04:34:24;;;;;;;10.93;6.18;;;;;;;;;;5013750;28;20113;-74
2023/06/01 04:36:51;;;;;;;13.73;6.43;;;;;;;;;;5026904;28;20029;-78
2023/06/01 04:39:16;;;;;;;13.40;6.05;;;;;;;;;;5027410;28;20078;-73
2023/06/01 04:41:42;;;;;;;13.93;5.72;;;;;;;;;;5028311;28;20033;-76
2023/06/01 04:44:08;;;;;;;11.98;6.15;;;;;;;;;;5026477;28;20066;-76
2023/06/01 04:46:35;;;;;;;12.90;5.90;;;;;;;;;;5025672;28;20499;-76
2023/06/01 04:49:01;;;;;;;11.80;5.68;;;;;;;;;;5012360;28;20029;-78
2023/06/01 04:51:30;;;;;;;14.32;6.20;;;;;;;;;;5027332;28;20487;-77
2023/06/01 04:53:56;;;;;;;12.52;6.68;;;;;;;;;;5026765;28;20033;-77
2023/06/01 04:56:29;;;;;;;12.60;6.53;;;;;;;;;;5041010;28;20033;-77
2023/06/01 04:58:56;;;;;;;10.98;6.05;;;;;;;;;;5009000;28;20037;-77
2023/06/01 05:01:24;;;;;;;15.00;6.40;;;;;;;;;;5010520;28;20037;-76
2023/06/01 05:03:51;;;;;;;15.50;6.75;;;;;;;;;;5045751;28;20674;-77
2023/06/01 05:06:21;;;;;;;12.57;6.20;;;;;;;;;;5025470;28;20033;-79
2023/06/01 05:08:46;;;;;;;13.15;6.60;;;;;;;;;;5011139;28;20263;-77
2023/06/01 05:11:12;;;;;;;12.45;6.68;;;;;;;;;;5006787;28;20047;-77
2023/06/01 05:13:38;;;;;;;13.43;6.68;;;;;;;;;;5044551;28;20033;-77
2023/06/01 05:16:04;;;;;;;12.07;6.55;;;;;;;;;;5011952;28;20468;-81
2023/06/01 05:18:31;;;;;;;13.52;6.57;;;;;;;;;;5025301;28;20436;-83
2023/06/01 05:20:56;;;;;;;9.75;5.90;;;;;;;;;;5010767;28;20454;-82
2023/06/01 05:23:22;;;;;;;16.00;6.40;;;;;;;;;;5027241;28;20124;-82
2023/06/01 05:25:48;;;;;;;12.23;5.82;;;;;;;;;;5024708;28;20542;-83
2023/06/01 05:28:14;;;;;;;13.45;6.38;;;;;;;;;;5011897;28;20033;-82
2023/06/01 05:30:40;;;;;;;14.40;6.60;;;;;;;;;;5027376;28;20040;-83
2023/06/01 05:33:06;;;;;;;11.80;6.60;;;;;;;;;;5013897;28;20041;-82
2023/06/01 05:35:31;;;;;;;11.75;5.97;;;;;;;;;;5011833;28;20033;-84
2023/06/01 05:37:57;;;;;;;11.40;6.40;;;;;;;;;;5046093;28;20033;-82
2023/06/01 05:40:22;;;;;;;12.32;6.05;;;;;;;;;;5044630;28;20045;-82
2023/06/01 05:42:47;;;;;;;13.18;5.82;;;;;;;;;;5045074;28;20550;-84
2023/06/01 05:45:13;;;;;;;11.25;5.57;;;;;;;;;;5027087;28;20037;-83
2023/06/01 05:47:38;;;;;;;10.43;5.30;;;;;;;;;;5045301;28;20145;-83
2023/06/01 05:50:04;;;;;;;10.00;4.90;;;;;;;;;;5011449;28;20040;-82
2023/06/01 05:52:30;;;;;;;11.82;5.07;;;;;;;;;;5010540;28;20536;-82
2023/06/01 05:54:56;;;;;;;12.25;4.72;;;;;;;;;;5023516;28;20064;-81
2023/06/01 05:57:21;;;;;;;9.75;4.90;;;;;;;;;;5021645;28;20037;-83
2023/06/01 05:59:47;;;;;;;13.27;4.97;;;;;;;;;;5009858;28;20029;-81
2023/06/01 06:02:13;;;;;;;12.43;5.28;;;;;;;;;;5009966;28;20033;-80
2023/06/01 06:04:39;;;;;;;11.43;5.10;;;;;;;;;;5025522;28;20793;-82
2023/06/01 06:07:05;;;;;;;11.23;4.63;;;;;;;;;;5041951;28;20512;-82
2023/06/01 06:09:30;;;;;;;13.02;4.57;;;;;;;;;;5000549;28;20033;-82
2023/06/01 06:11:56;;;;;;;9.70;4.32;;;;;;;;;;5025294;28;20063;-82
2023/06/01 06:14:21;;;;;;;7.55;3.90;;;;;;;;;;5019360;28;20716;-81
2023/06/01 06:16:47;;;;;;;7.88;3.50;;;;;;;;;;5042858;28;20051;-82
2023/06/01 06:19:15;;;;;;;11.02;3.95;;;;;;;;;;5025875;28;20033;-80
2023/06/01 06:21:41;;;;;;;10.65;4.07;;;;;;;;;;5008885;28;20072;-80
2023/06/01 06:24:06;;;;;;;8.80;4.13;;;;;;;;;;5009498;28;20048;-81
2023/06/01 06:26:32;;;;;;;8.10;3.80;;;;;;;;;;5026545;28;20071;-81
2023/06/01 06:28:57;;;;;;;6.68;3.58;;;;;;;;;;5042786;28;20821;-81
2023/06/01 06:31:23;;;;;;;6.82;3.70;;;;;;;;;;5010382;28;20045;-79
2023/06/01 06:33:48;;;;;;;9.73;4.07;;;;;;;;;;5025526;28;20033;-79
2023/06/01 06:36:14;;;;;;;8.45;3.70;;;;;;;;;;5026142;28;20072;-79
2023/06/01 06:38:39;;;;;;;11.02;3.90;;;;;;;;;;5025730;28;20393;-79
2023/06/01 06:41:05;;;;;;;9.88;3.42;;;;;;;;;;5023304;28;20400;-78
2023/06/01 06:43:30;;;;;;;7.22;3.38;;;;;;;;;;5008453;28;20041;-79
2023/06/01 06:45:56;;;;;;;10.90;3.88;;;;;;;;;;5039806;28;20106;-80
2023/06/01 06:48:21;;;;;;;8.20;3.45;;;;;;;;;;5024745;28;20099;-79
2023/06/01 06:50:47;;;;;;;8.45;3.88;;;;;;;;;;5020904;28;20033;-79
2023/06/01 06:53:12;;;;;;;9.88;3.75;;;;;;;;;;5022870;28;20044;-79
2023/06/01 06:55:38;;;;;;;8.20;3.78;;;;;;;;;;5025517;28;20036;-79
2023/06/01 06:58:03;;;;;;;9.85;3.80;;;;;;;;;;5026095;28;20043;-82
2023/06/01 07:00:30;;;;;;;11.85;4.13;;;;;;;;;;5024145;28;20064;-79
2023/06/01 07:02:56;;;;;;;7.75;3.30;;;;;;;;;;5025475;28;20179;-79
2023/06/01 07:05:21;;;;;;;6.05;3.40;;;;;;;;;;5006797;28;20641;-81
2023/06/01 07:07:47;;;;;;;7.25;3.25;;;;;;;;;;5021342;28;20033;-81
2023/06/01 07:10:12;;;;;;;6.25;3.20;;;;;;;;;;5041258;28;20037;-82
2023/06/01 07:12:38;;;;;;;6.75;2.80;;;;;;;;;;5038424;28;20377;-81
2023/06/01 07:15:05;;;;;;;6.88;3.22;;;;;;;;;;5024812;28;20036;-81
2023/06/01 07:17:30;;;;;;;7.07;3.42;;;;;;;;;;5022838;28;20496;-80
2023/06/01 07:19:56;;;;;;;6.82;3.25;;;;;;;;;;5025972;28;20029;-79
2023/06/01 07:22:21;;;;;;;9.10;3.00;;;;;;;;;;5021717;28;20051;-81
2023/06/01 07:24:47;;;;;;;6.40;3.20;;;;;;;;;;5042209;28;20048;-80
2023/06/01 07:27:13;;;;;;;9.48;3.15;;;;;;;;;;5022806;28;20037;-78
2023/06/01 07:29:39;;;;;;;8.63;3.30;;;;;;;;;;5025618;28;20061;-79
2023/06/01 07:32:05;;;;;;;6.50;3.15;;;;;;;;;;5041797;28;20615;-79
2023/06/01 07:34:33;;;;;;;6.53;2.97;;;;;;;;;;5025139;28;20037;-79
2023/06/01 07:36:59;;;;;;;9.82;3.42;;;;;;;;;;5042339;28;20040;-79
2023/06/01 07:39:25;;;;;;;9.20;2.65;;;;;;;;;;5009906;28;20086;-79
2023/06/01 07:41:53;;;;;;;5.15;2.50;;;;;;;;;;5001934;28;20033;-79
2023/06/01 07:44:19;;;;;;;;;;;;;;;;;;5042362;28;20083;-79
2023/06/01 07:46:45;;;;;;;7.93;3.17;;;;;;;;;;5041770;28;19957;-80
2023/06/01 07:49:13;;;;;;;7.97;3.20;;;;;;;;;;5015862;28;20721;-80
2023/06/01 07:51:39;;;;;;;7.85;3.20;;;;;;;;;;5038205;28;20151;-80
2023/06/01 07:54:05;;;;;;;8.55;2.97;;;;;;;;;;5024280;28;20502;-80
2023/06/01 07:56:30;;;;;;;6.57;2.90;;;;;;;;;;5041930;28;20033;-79
2023/06/01 07:58:56;;;;;;;4.95;2.67;;;;;;;;;;5039535;28;20569;-80
2023/06/01 08:01:21;;;;;;;7.28;2.70;;;;;;;;;;5041322;28;20033;-79
2023/06/01 08:03:46;;;;;;;8.43;3.20;;;;;;;;;;5023637;28;20064;-80
2023/06/01 08:06:12;;;;;;;6.60;3.38;;;;;;;;;;5024168;28;20033;-79
2023/06/01 08:08:38;;;;;;;5.30;2.60;;;;;;;;;;5024073;28;20041;-80
2023/06/01 08:11:04;;;;;;;5.97;3.00;;;;;;;;;;5024870;28;20044;-80
2023/06/01 08:13:29;;;;;;;6.18;2.72;;;;;;;;;;5006691;28;20392;-79
2023/06/01 08:15:55;;;;;;;10.15;2.60;;;;;;;;;;5037233;28;20033;-80
2023/06/01 08:18:21;;;;;;;8.15;2.95;;;;;;;;;;5004996;28;20606;-79
2023/06/01 08:20:48;;;;;;;5.20;2.70;;;;;;;;;;5042476;28;20037;-80
2023/06/01 08:23:13;;;;;;;9.02;3.25;;;;;;;;;;5025388;28;20156;-79
2023/06/01 08:25:40;;;;;;;7.45;2.90;;;;;;;;;;5040888;28;20108;-80
2023/06/01 08:28:05;;;;;;;8.27;2.30;;;;;;;;;;5040257;28;20477;-80
2023/06/01 08:30:31;;;;;;;5.57;2.25;;;;;;;;;;5042059;28;20056;-80
2023/06/01 08:32:56;;;;;;;6.70;2.40;;;;;;;;;;5041731;28;20116;-81
2023/06/01 08:35:21;;;;;;;6.38;2.70;;;;;;;;;;5040386;28;20564;-80
2023/06/01 08:37:47;;;;;;;6.85;2.80;;;;;;;;;;5023122;28;20071;-80
2023/06/01 08:40:13;;;;;;;7.65;3.00;;;;;;;;;;5021848;28;20071;-81
2023/06/01 08:42:45;;;;;;;7.80;2.67;;;;;;;;;;5038516;28;20493;-82
2023/06/01 08:45:12;;;;;;;7.07;2.40;;;;;;;;;;5040297;28;20609;-81
2023/06/01 08:47:38;;;;;;;6.78;2.90;;;;;;;;;;5031046;28;20116;-82
2023/06/01 08:50:04;;;;;;;4.88;2.05;;;;;;;;;;5021279;28;20106;-81
2023/06/01 08:52:31;;;;;;;6.35;2.60;;;;;;;;;;5022056;28;20507;-81
2023/06/01 08:55:02;;;;;;;4.97;2.70;;;;;;;;;;5023829;28;20723;-82
2023/06/01 08:57:28;;;;;;;4.57;2.10;;;;;;;;;;5001174;28;20424;-82
2023/06/01 08:59:54;;;;;;;4.82;2.30;;;;;;;;;;5019627;28;20029;-82
2023/06/01 09:02:19;;;;;;;8.18;2.72;;;;;;;;;;5022616;28;20041;-81
2023/06/01 09:04:45;;;;;;;5.07;2.30;;;;;;;;;;5009433;28;20049;-82
2023/06/01 09:07:12;;;;;;;6.13;2.50;;;;;;;;;;5023381;28;20040;-82
2023/06/01 09:09:37;;;;;;;6.55;2.88;;;;;;;;;;5023891;28;20047;-82
2023/06/01 09:12:19;;;;;;;6.22;3.20;;;;;;;;;;5027201;28;20033;-83
2023/06/01 09:14:45;;;;;;;6.28;2.90;;;;;;;;;;5044240;28;20560;-82
2023/06/01 09:17:15;;;;;;;5.82;2.90;;;;;;;;;;5027721;28;20439;-82
2023/06/01 09:19:44;;;;;;;9.00;3.20;;;;;;;;;;5025863;28;20488;-82
2023/06/01 09:22:11;;;;;;;7.05;3.40;;;;;;;;;;5020727;28;20128;-82
2023/06/01 09:24:36;;;;;;;8.57;3.03;;;;;;;;;;5023938;28;20037;-82
2023/06/01 09:27:02;;;;;;;5.80;2.88;;;;;;;;;;5008103;28;20555;-82
2023/06/01 09:29:28;;;;;;;7.20;3.28;;;;;;;;;;5021038;28;20041;-82
2023/06/01 09:31:54;;;;;;;5.38;2.90;;;;;;;;;;5020138;28;20095;-83
2023/06/01 09:34:20;;;;;;;7.30;3.30;;;;;;;;;;5025147;28;20107;-82
2023/06/01 09:36:52;;;;;;;6.18;2.70;;;;;;;;;;5018536;28;20045;-82
2023/06/01 09:39:19;;;;;;;6.60;3.15;;;;;;;;;;5014421;28;20048;-82
2023/06/01 09:41:48;;;;;;;5.83;3.10;;;;;;;;;;5023690;28;20038;-81
2023/06/01 09:44:15;;;;;;;7.28;3.38;;;;;;;;;;5024337;28;20030;-82
2023/06/01 09:46:48;;;;;;;6.85;3.90;;;;;;;;;;5023990;28;20048;-82
2023/06/01 09:49:40;;;;;;;9.27;4.43;;;;;;;;;;5007481;28;20727;-83
2023/06/01 09:52:06;;;;;;;6.85;4.35;;;;;;;;;;5015097;28;20041;-83
2023/06/01 09:55:04;;;;;;;7.72;4.70;;;;;;;;;;5024295;28;20093;-83
2023/06/01 09:57:29;;;;;;;5.78;3.92;;;;;;;;;;5023595;28;20033;-83
2023/06/01 09:59:55;;;;;;;9.82;5.00;;;;;;;;;;5023898;28;20037;-82
2023/06/01 10:02:21;;;;;;;7.05;4.28;;;;;;;;;;5001953;28;20137;-82
2023/06/01 10:04:50;;;;;;;7.95;4.75;;;;;;;;;;5023562;28;20037;-82
2023/06/01 10:07:17;;;;;;;7.80;4.43;;;;;;;;;;5006977;28;20429;-83
2023/06/01 10:09:45;;;;;;;7.90;4.47;;;;;;;;;;5024407;28;20041;-83
2023/06/01 10:12:11;;;;;;;6.70;4.70;;;;;;;;;;5022651;28;20525;-84
2023/06/01 10:14:40;;;;;;;7.07;4.30;;;;;;;;;;5023470;28;20132;-83
2023/06/01 10:17:06;;;;;;;5.78;3.88;;;;;;;;;;5000315;28;20497;-84
2023/06/01 10:19:37;;;;;;;8.03;4.53;;;;;;;;;;5019910;28;20033;-85
2023/06/01 10:22:03;;;;;;;8.63;4.47;;;;;;;;;;5017548;28;20038;-85
2023/06/01 10:24:29;;;;;;;6.38;4.43;;;;;;;;;;5007627;28;20033;-85
2023/06/01 10:26:58;;;;;;;7.25;4.25;;;;;;;;;;5024726;28;20124;-84
2023/06/01 10:29:24;;;;;;;6.88;4.13;;;;;;;;;;5024110;28;20041;-86
2023/06/01 10:31:49;;;;;;;6.82;4.65;;;;;;;;;;5023909;28;20040;-86
2023/06/01 10:34:14;;;;;;;6.65;3.83;;;;;;;;;;5024996;28;20448;-85
2023/06/01 10:36:52;;;;;;;6.03;3.92;;;;;;;;;;5023754;28;20033;-89
2023/06/01 10:39:24;;;;;;;6.07;4.07;;;;;;;;;;5025303;28;20643;-90
2023/06/01 10:41:50;;;;;;;7.80;4.50;;;;;;;;;;5026576;28;20774;-90
2023/06/01 10:44:40;;;;;;;7.45;4.13;;;;;;;;;;5025486;28;20041;-90
2023/06/01 10:47:06;;;;;;;6.07;4.32;;;;;;;;;;5026803;28;20038;-90
2023/06/01 10:49:46;;;;;;;6.32;4.35;;;;;;;;;;5021928;28;20056;-83
2023/06/01 10:52:34;;;;;;;6.75;4.07;;;;;;;;;;5013104;28;20038;-85
2023/06/01 10:55:13;;;;;;;5.72;3.75;;;;;;;;;;5010606;28;20123;-82
2023/06/01 10:57:48;;;;;;;8.02;4.10;;;;;;;;;;5010903;28;20547;-82
2023/06/01 11:00:23;;;;;;;8.02;3.75;;;;;;;;;;5021040;28;20037;-81
2023/06/01 11:02:59;;;;;;;7.07;4.03;;;;;;;;;;5016439;28;20044;-81
2023/06/01 11:05:37;;;;;;;7.10;3.77;;;;;;;;;;5005774;28;20535;-81
2023/06/01 11:08:09;;;;;;;6.50;3.63;;;;;;;;;;5005500;28;20038;-81
2023/06/01 11:10:53;;;;;;;6.03;3.42;;;;;;;;;;5022371;28;20515;-82
2023/06/01 11:13:29;;;;;;;5.15;3.45;;;;;;;;;;5023535;28;20037;-82
2023/06/01 11:16:04;;;;;;;5.47;3.67;;;;;;;;;;5003474;28;20029;-82
2023/06/01 11:18:46;;;;;;;5.90;3.42;;;;;;;;;;5023015;28;20365;-82
2023/06/01 11:21:17;;;;;;;6.60;3.30;;;;;;;;;;5020926;28;20057;-82
2023/06/01 11:23:44;;;;;;;5.43;3.15;;;;;;;;;;5005901;28;20128;-81
2023/06/01 11:26:09;;;;;;;6.05;3.47;;;;;;;;;;5020895;28;20029;-81
2023/06/01 11:28:37;;;;;;;5.07;3.00;;;;;;;;;;5004932;28;20057;-81
2023/06/01 11:31:10;;;;;;;6.13;2.88;;;;;;;;;;5018540;28;20079;-82
2023/06/01 11:33:38;;;;;;;5.75;2.80;;;;;;;;;;5003714;28;20125;-82
2023/06/01 11:36:10;;;;;;;5.85;2.88;;;;;;;;;;5013786;28;20107;-82
2023/06/01 11:38:38;;;;;;;6.40;2.80;;;;;;;;;;5022867;28;20041;-82
2023/06/01 11:41:04;;;;;;;5.90;2.70;;;;;;;;;;5003995;28;20112;-82
2023/06/01 11:43:30;;;;;;;5.55;2.50;;;;;;;;;;5023295;28;20120;-82
2023/06/01 11:46:06;;;;;;;4.90;2.40;;;;;;;;;;5022668;28;20033;-82
2023/06/01 11:48:33;;;;;;;5.03;2.22;;;;;;;;;;5023275;28;20069;-81
2023/06/01 11:51:00;;;;;;;4.85;2.17;;;;;;;;;;5020805;28;20026;-82
2023/06/01 11:53:26;;;;;;;6.50;2.42;;;;;;;;;;5022709;28;20500;-82
2023/06/01 11:55:54;;;;;;;5.95;2.42;;;;;;;;;;5034432;28;20042;-81
2023/06/01 11:58:38;;;;;;;5.00;2.60;;;;;;;;;;5020745;28;20906;-82
2023/06/01 12:01:04;;;;;;;4.82;2.45;;;;;;;;;;5019613;28;20453;-81
2023/06/01 12:03:31;;;;;;;5.30;2.70;;;;;;;;;;5019926;28;20113;-81
2023/06/01 12:05:58;;;;;;;;;;;;;;;;;;5021997;28;20078;-81
2023/06/01 12:08:24;;;;;;;5.97;2.90;;;;;;;;;;5003179;28;19921;-82
2023/06/01 12:10:52;;;;;;;5.65;3.00;;;;;;;;;;5021753;28;20500;-81
2023/06/01 12:13:18;;;;;;;8.35;4.57;;;;;;;;;;5019544;28;20365;-83
2023/06/01 12:15:44;;;;;;;6.60;2.72;;;;;;;;;;5010615;28;20515;-81
2023/06/01 12:18:10;;;;;;;5.55;2.60;;;;;;;;;;5023096;28;20025;-82
2023/06/01 12:20:43;;;;;;;5.43;2.67;;;;;;;;;;5003673;28;20045;-81
2023/06/01 12:23:18;;;;;;;5.40;2.65;;;;;;;;;;5020722;28;20033;-81
2023/06/01 12:25:55;;;;;;;6.82;2.95;;;;;;;;;;4996062;28;20037;-81
2023/06/01 12:28:21;;;;;;;4.65;2.28;;;;;;;;;;4995800;28;20072;-81
2023/06/01 12:30:47;;;;;;;8.27;2.72;;;;;;;;;;4993231;28;20057;-81
2023/06/01 12:33:35;;;;;;;5.32;2.75;;;;;;;;;;5020469;28;20723;-83
2023/06/01 12:36:06;;;;;;;4.13;2.45;;;;;;;;;;4995180;28;20029;-80
2023/06/01 12:38:51;;;;;;;5.97;2.58;;;;;;;;;;5022419;28;20103;-81
2023/06/01 12:41:17;;;;;;;6.22;2.70;;;;;;;;;;5006372;28;20106;-81
2023/06/01 12:43:52;;;;;;;5.93;2.83;;;;;;;;;;5027638;28;20120;-81
2023/06/01 12:46:28;;;;;;;5.63;2.92;;;;;;;;;;5022132;28;20037;-77
2023/06/01 12:49:10;;;;;;;5.50;2.70;;;;;;;;;;5023195;28;20561;-77
2023/06/01 12:51:36;;;;;;;7.20;3.10;;;;;;;;;;5001886;28;20497;-76
2023/06/01 12:54:02;;;;;;;6.85;2.53;;;;;;;;;;5016560;28;20099;-77
2023/06/01 12:56:28;;;;;;;5.07;2.35;;;;;;;;;;5008074;28;20427;-78
2023/06/01 12:58:53;;;;;;;5.78;2.63;;;;;;;;;;5024703;28;20076;-77
2023/06/01 13:01:19;;;;;;;5.97;2.40;;;;;;;;;;5006886;28;20041;-76
2023/06/01 13:03:44;;;;;;;6.20;2.95;;;;;;;;;;5022591;28;20056;-75
2023/06/01 13:06:10;;;;;;;6.82;2.75;;;;;;;;;;5023416;28;20091;-75
2023/06/01 13:08:36;;;;;;;5.80;2.33;;;;;;;;;;5040830;28;20440;-76
2023/06/01 13:11:02;;;;;;;7.75;2.53;;;;;;;;;;5012177;28;20119;-83
2023/06/01 13:13:28;;;;;;;5.32;2.22;;;;;;;;;;5010152;28;20096;-83
2023/06/01 13:15:54;;;;;;;4.75;2.00;;;;;;;;;;5024093;28;20564;-83
2023/06/01 13:18:19;;;;;;;6.03;2.20;;;;;;;;;;5023617;28;20029;-83
2023/06/01 13:20:45;;;;;;;5.50;2.10;;;;;;;;;;5021494;28;20081;-83
2023/06/01 13:23:11;;;;;;;5.50;2.10;;;;;;;;;;5006893;28;20038;-83
2023/06/01 13:25:37;;;;;;;5.68;1.73;;;;;;;;;;4991889;28;20861;-83
2023/06/01 13:28:03;;;;;;;3.72;1.60;;;;;;;;;;5006845;28;20092;-83
2023/06/01 13:30:29;;;;;;;4.82;1.80;;;;;;;;;;5000080;28;20069;-83
2023/06/01 13:32:57;;;;;;;5.32;1.70;;;;;;;;;;4990445;28;20044;-83
2023/06/01 13:35:23;;;;;;;5.63;2.05;;;;;;;;;;4985006;28;20382;-83
2023/06/01 13:37:49;;;;;;;3.60;1.63;;;;;;;;;;5007606;28;20159;-84
2023/06/01 13:40:18;;;;;;;5.38;1.58;;;;;;;;;;5005991;28;20026;-85
2023/06/01 13:42:46;;;;;;;5.22;1.83;;;;;;;;;;5007703;28;20064;-84
2023/06/01 13:45:12;;;;;;;4.68;1.83;;;;;;;;;;4990461;28;20409;-84
2023/06/01 13:47:37;;;;;;;4.55;1.90;;;;;;;;;;5007919;28;20037;-84
2023/06/01 13:50:04;;;;;;;4.88;1.70;;;;;;;;;;5001818;28;20034;-84
2023/06/01 13:52:30;;;;;;;4.18;1.73;;;;;;;;;;4990787;28;20045;-84
2023/06/01 13:54:55;;;;;;;5.28;1.77;;;;;;;;;;5023563;28;20401;-83
2023/06/01 13:57:22;;;;;;;4.20;1.80;;;;;;;;;;5022703;28;20033;-83
2023/06/01 13:59:47;;;;;;;5.80;1.95;;;;;;;;;;5004726;28;20564;-83
2023/06/01 14:02:13;;;;;;;7.85;1.85;;;;;;;;;;5006124;28;20133;-83
2023/06/01 14:04:38;;;;;;;7.07;1.90;;;;;;;;;;5004491;28;20398;-83
2023/06/01 14:07:04;;;;;;;5.18;2.00;;;;;;;;;;5006837;28;20029;-83
2023/06/01 14:09:29;;;;;;;5.18;1.92;;;;;;;;;;5004388;28;20060;-83
2023/06/01 14:11:55;;;;;;;4.55;1.58;;;;;;;;;;5006608;28;20037;-84
2023/06/01 14:14:20;;;;;;;5.03;2.10;;;;;;;;;;4991117;28;20116;-84
2023/06/01 14:16:46;;;;;;;5.93;2.00;;;;;;;;;;5022465;28;20037;-83
2023/06/01 14:19:11;;;;;;;6.80;2.20;;;;;;;;;;5003136;28;20046;-84
2023/06/01 14:21:38;;;;;;;5.97;2.20;;;;;;;;;;5012659;28;20966;-83
2023/06/01 14:24:03;;;;;;;5.43;2.30;;;;;;;;;;5005586;28;20504;-83
2023/06/01 14:26:29;;;;;;;6.60;2.10;;;;;;;;;;5006200;28;20280;-84
2023/06/01 14:28:55;;;;;;;7.43;2.13;;;;;;;;;;5024396;28;20120;-84
2023/06/01 14:31:23;;;;;;;5.63;2.65;;;;;;;;;;5006954;28;20044;-83
2023/06/01 14:33:49;;;;;;;7.28;2.40;;;;;;;;;;5022174;28;20037;-83
2023/06/01 14:36:14;;;;;;;5.93;2.17;;;;;;;;;;5021355;28;20044;-84
2023/06/01 14:38:40;;;;;;;6.35;2.28;;;;;;;;;;5004999;28;20117;-84
2023/06/01 14:41:07;;;;;;;5.13;2.13;;;;;;;;;;5007764;28;20121;-83
2023/06/01 14:43:32;;;;;;;6.90;2.40;;;;;;;;;;5021608;28;20653;-84